sensor_id;sensor_type;location;lat;lon;timestamp;P1;durP1;ratioP1;P2;durP2;ratioP2
1436;SDS011;712;51.026;13.792;2023-06-22T00:00:59;11.45;;;6.60;;
1436;SDS011;712;51.026;13.792;2023-06-22T00:03:25;10.68;;;5.95;;
1436;SDS011;712;51.026;13.792;2023-06-22T00:05:50;9.13;;;6.10;;
1436;SDS011;712;51.026;13.792;2023-06-22T00:08:16;10.70;;;6.40;;
1436;SDS011;712;51.026;13.792;2023-06-22T00:10:42;10.38;;;6.15;;
1436;SDS011;712;51.026;13.792;2023-06-22T00:13:07;8.80;;;5.93;;
1436;SDS011;712;51.026;13.792;2023-06-22T00:15:33;7.93;;;5.65;;
1436;SDS011;712;51.026;13.792;2023-06-22T00:17:58;9.10;;;6.20;;
1436;SDS011;712;51.026;13.792;2023-06-22T00:20:24;10.20;;;5.75;;
1436;SDS011;712;51.026;13.792;2023-06-22T00:22:56;9.50;;;6.13;;
1436;SDS011;712;51.026;13.792;2023-06-22T00:25:21;10.18;;;6.80;;
1436;SDS011;712;51.026;13.792;2023-06-22T00:27:47;10.25;;;6.82;;
1436;SDS011;712;51.026;13.792;2023-06-22T00:30:12;9.68;;;6.25;;
1436;SDS011;712;51.026;13.792;2023-06-22T00:32:37;10.60;;;6.82;;
1436;SDS011;712;51.026;13.792;2023-06-22T00:35:03;9.18;;;5.97;;
1436;SDS011;712;51.026;13.792;2023-06-22T00:37:28;9.90;;;6.32;;
1436;SDS011;712;51.026;13.792;2023-06-22T00:39:54;9.27;;;5.85;;
1436;SDS011;712;51.026;13.792;2023-06-22T00:42:20;9.45;;;5.80;;
1436;SDS011;712;51.026;13.792;2023-06-22T00:44:45;10.43;;;6.90;;
1436;SDS011;712;51.026;13.792;2023-06-22T00:47:11;11.35;;;6.53;;
1436;SDS011;712;51.026;13.792;2023-06-22T00:49:37;9.02;;;6.53;;
1436;SDS011;712;51.026;13.792;2023-06-22T00:52:03;12.18;;;6.53;;
1436;SDS011;712;51.026;13.792;2023-06-22T00:54:29;10.80;;;5.75;;
1436;SDS011;712;51.026;13.792;2023-06-22T00:56:54;10.15;;;6.20;;
1436;SDS011;712;51.026;13.792;2023-06-22T00:59:21;9.32;;;6.18;;
1436;SDS011;712;51.026;13.792;2023-06-22T01:01:46;10.13;;;6.40;;
1436;SDS011;712;51.026;13.792;2023-06-22T01:04:11;10.30;;;6.40;;
1436;SDS011;712;51.026;13.792;2023-06-22T01:06:38;10.13;;;6.50;;
1436;SDS011;712;51.026;13.792;2023-06-22T01:09:12;10.10;;;6.63;;
1436;SDS011;712;51.026;13.792;2023-06-22T01:12:02;10.88;;;6.50;;
1436;SDS011;712;51.026;13.792;2023-06-22T01:14:36;9.80;;;6.72;;
1436;SDS011;712;51.026;13.792;2023-06-22T01:17:03;9.05;;;6.00;;
1436;SDS011;712;51.026;13.792;2023-06-22T01:19:38;9.73;;;6.43;;
1436;SDS011;712;51.026;13.792;2023-06-22T01:22:06;10.25;;;7.00;;
1436;SDS011;712;51.026;13.792;2023-06-22T01:24:42;10.18;;;6.63;;
1436;SDS011;712;51.026;13.792;2023-06-22T01:27:15;9.02;;;6.38;;
1436;SDS011;712;51.026;13.792;2023-06-22T01:29:46;9.88;;;6.40;;
1436;SDS011;712;51.026;13.792;2023-06-22T01:32:12;9.57;;;6.05;;
1436;SDS011;712;51.026;13.792;2023-06-22T01:34:37;10.98;;;6.90;;
1436;SDS011;712;51.026;13.792;2023-06-22T01:37:04;11.82;;;6.75;;
1436;SDS011;712;51.026;13.792;2023-06-22T01:39:30;9.85;;;6.68;;
1436;SDS011;712;51.026;13.792;2023-06-22T01:44:21;11.68;;;7.05;;
1436;SDS011;712;51.026;13.792;2023-06-22T01:46:47;10.95;;;6.65;;
1436;SDS011;712;51.026;13.792;2023-06-22T01:49:14;10.45;;;6.40;;
1436;SDS011;712;51.026;13.792;2023-06-22T01:51:39;9.90;;;6.03;;
1436;SDS011;712;51.026;13.792;2023-06-22T01:54:05;10.83;;;6.57;;
1436;SDS011;712;51.026;13.792;2023-06-22T01:56:31;12.00;;;6.57;;
1436;SDS011;712;51.026;13.792;2023-06-22T02:01:25;11.38;;;6.45;;
1436;SDS011;712;51.026;13.792;2023-06-22T02:04:06;11.35;;;6.50;;
1436;SDS011;712;51.026;13.792;2023-06-22T02:06:33;10.70;;;6.88;;
1436;SDS011;712;51.026;13.792;2023-06-22T02:09:02;10.00;;;6.75;;
1436;SDS011;712;51.026;13.792;2023-06-22T02:11:27;11.05;;;7.38;;
1436;SDS011;712;51.026;13.792;2023-06-22T02:13:53;10.40;;;6.68;;
1436;SDS011;712;51.026;13.792;2023-06-22T02:16:20;10.90;;;6.90;;
1436;SDS011;712;51.026;13.792;2023-06-22T02:18:46;10.38;;;6.50;;
1436;SDS011;712;51.026;13.792;2023-06-22T02:23:36;10.02;;;6.13;;
1436;SDS011;712;51.026;13.792;2023-06-22T02:26:02;10.40;;;6.43;;
1436;SDS011;712;51.026;13.792;2023-06-22T02:28:27;11.60;;;7.28;;
1436;SDS011;712;51.026;13.792;2023-06-22T02:30:52;9.90;;;6.67;;
1436;SDS011;712;51.026;13.792;2023-06-22T02:33:17;11.45;;;6.57;;
1436;SDS011;712;51.026;13.792;2023-06-22T02:35:42;10.90;;;6.80;;
1436;SDS011;712;51.026;13.792;2023-06-22T02:38:10;12.02;;;7.03;;
1436;SDS011;712;51.026;13.792;2023-06-22T02:40:35;10.23;;;6.82;;
1436;SDS011;712;51.026;13.792;2023-06-22T02:43:00;13.73;;;7.15;;
1436;SDS011;712;51.026;13.792;2023-06-22T02:45:27;10.73;;;6.75;;
1436;SDS011;712;51.026;13.792;2023-06-22T02:47:53;9.88;;;6.75;;
1436;SDS011;712;51.026;13.792;2023-06-22T02:50:18;10.33;;;6.73;;
1436;SDS011;712;51.026;13.792;2023-06-22T02:52:43;10.85;;;6.40;;
1436;SDS011;712;51.026;13.792;2023-06-22T02:55:08;10.77;;;6.57;;
1436;SDS011;712;51.026;13.792;2023-06-22T02:57:33;12.30;;;6.50;;
1436;SDS011;712;51.026;13.792;2023-06-22T02:59:59;9.43;;;6.63;;
1436;SDS011;712;51.026;13.792;2023-06-22T03:02:24;11.93;;;6.97;;
1436;SDS011;712;51.026;13.792;2023-06-22T03:04:49;9.52;;;6.15;;
1436;SDS011;712;51.026;13.792;2023-06-22T03:07:14;10.20;;;6.88;;
1436;SDS011;712;51.026;13.792;2023-06-22T03:09:39;10.90;;;7.15;;
1436;SDS011;712;51.026;13.792;2023-06-22T03:12:05;9.63;;;6.90;;
1436;SDS011;712;51.026;13.792;2023-06-22T03:14:31;10.83;;;6.90;;
1436;SDS011;712;51.026;13.792;2023-06-22T03:16:56;12.57;;;7.68;;
1436;SDS011;712;51.026;13.792;2023-06-22T03:19:26;11.98;;;7.15;;
1436;SDS011;712;51.026;13.792;2023-06-22T03:21:53;11.98;;;7.53;;
1436;SDS011;712;51.026;13.792;2023-06-22T03:24:18;11.63;;;7.35;;
1436;SDS011;712;51.026;13.792;2023-06-22T03:26:43;10.32;;;7.07;;
1436;SDS011;712;51.026;13.792;2023-06-22T03:29:11;11.35;;;7.60;;
1436;SDS011;712;51.026;13.792;2023-06-22T03:31:36;11.18;;;6.57;;
1436;SDS011;712;51.026;13.792;2023-06-22T03:34:01;12.40;;;7.63;;
1436;SDS011;712;51.026;13.792;2023-06-22T03:36:26;12.50;;;7.20;;
1436;SDS011;712;51.026;13.792;2023-06-22T03:38:51;10.75;;;6.75;;
1436;SDS011;712;51.026;13.792;2023-06-22T03:41:17;9.07;;;6.28;;
1436;SDS011;712;51.026;13.792;2023-06-22T03:43:42;10.93;;;6.83;;
1436;SDS011;712;51.026;13.792;2023-06-22T03:46:07;10.63;;;7.00;;
1436;SDS011;712;51.026;13.792;2023-06-22T03:48:32;9.80;;;6.40;;
1436;SDS011;712;51.026;13.792;2023-06-22T03:51:01;9.25;;;6.30;;
1436;SDS011;712;51.026;13.792;2023-06-22T03:53:26;11.15;;;7.35;;
1436;SDS011;712;51.026;13.792;2023-06-22T03:55:52;11.52;;;6.68;;
1436;SDS011;712;51.026;13.792;2023-06-22T03:58:17;9.60;;;6.32;;
1436;SDS011;712;51.026;13.792;2023-06-22T04:00:44;10.48;;;7.32;;
1436;SDS011;712;51.026;13.792;2023-06-22T04:03:09;11.38;;;7.07;;
1436;SDS011;712;51.026;13.792;2023-06-22T04:05:34;11.40;;;7.32;;
1436;SDS011;712;51.026;13.792;2023-06-22T04:07:59;13.65;;;6.55;;
1436;SDS011;712;51.026;13.792;2023-06-22T04:10:24;12.10;;;7.68;;
1436;SDS011;712;51.026;13.792;2023-06-22T04:12:49;10.30;;;7.03;;
1436;SDS011;712;51.026;13.792;2023-06-22T04:15:15;12.07;;;6.97;;
1436;SDS011;712;51.026;13.792;2023-06-22T04:17:40;10.90;;;6.50;;
1436;SDS011;712;51.026;13.792;2023-06-22T04:20:05;9.82;;;6.75;;
1436;SDS011;712;51.026;13.792;2023-06-22T04:22:30;10.45;;;6.68;;
1436;SDS011;712;51.026;13.792;2023-06-22T04:24:55;9.77;;;6.35;;
1436;SDS011;712;51.026;13.792;2023-06-22T04:27:21;12.75;;;7.18;;
1436;SDS011;712;51.026;13.792;2023-06-22T04:29:48;10.30;;;6.53;;
1436;SDS011;712;51.026;13.792;2023-06-22T04:32:14;12.45;;;6.88;;
1436;SDS011;712;51.026;13.792;2023-06-22T04:37:05;9.50;;;6.45;;
1436;SDS011;712;51.026;13.792;2023-06-22T04:39:30;10.70;;;6.17;;
1436;SDS011;712;51.026;13.792;2023-06-22T04:41:56;10.98;;;6.95;;
1436;SDS011;712;51.026;13.792;2023-06-22T04:44:25;10.73;;;7.18;;
1436;SDS011;712;51.026;13.792;2023-06-22T04:46:54;11.77;;;7.47;;
1436;SDS011;712;51.026;13.792;2023-06-22T04:49:24;9.75;;;6.60;;
1436;SDS011;712;51.026;13.792;2023-06-22T04:51:57;10.82;;;6.68;;
1436;SDS011;712;51.026;13.792;2023-06-22T04:54:23;9.35;;;6.07;;
1436;SDS011;712;51.026;13.792;2023-06-22T04:56:48;11.57;;;6.57;;
1436;SDS011;712;51.026;13.792;2023-06-22T04:59:22;9.20;;;5.82;;
1436;SDS011;712;51.026;13.792;2023-06-22T05:01:56;12.88;;;6.88;;
1436;SDS011;712;51.026;13.792;2023-06-22T05:04:22;9.02;;;6.43;;
1436;SDS011;712;51.026;13.792;2023-06-22T05:06:50;11.00;;;7.38;;
1436;SDS011;712;51.026;13.792;2023-06-22T05:09:16;9.43;;;6.78;;
1436;SDS011;712;51.026;13.792;2023-06-22T05:14:07;10.88;;;6.95;;
1436;SDS011;712;51.026;13.792;2023-06-22T05:18:57;11.23;;;6.40;;
1436;SDS011;712;51.026;13.792;2023-06-22T05:21:23;10.97;;;6.33;;
1436;SDS011;712;51.026;13.792;2023-06-22T05:23:49;9.82;;;6.50;;
1436;SDS011;712;51.026;13.792;2023-06-22T05:26:14;10.60;;;6.00;;
1436;SDS011;712;51.026;13.792;2023-06-22T05:31:04;9.30;;;6.05;;
1436;SDS011;712;51.026;13.792;2023-06-22T05:33:30;9.53;;;6.30;;
1436;SDS011;712;51.026;13.792;2023-06-22T05:35:55;12.55;;;6.28;;
1436;SDS011;712;51.026;13.792;2023-06-22T05:40:45;9.82;;;6.18;;
1436;SDS011;712;51.026;13.792;2023-06-22T05:45:35;10.82;;;6.50;;
1436;SDS011;712;51.026;13.792;2023-06-22T05:48:00;8.98;;;6.00;;
1436;SDS011;712;51.026;13.792;2023-06-22T05:52:51;11.10;;;5.72;;
1436;SDS011;712;51.026;13.792;2023-06-22T05:57:43;11.55;;;6.70;;
1436;SDS011;712;51.026;13.792;2023-06-22T06:02:35;10.32;;;7.30;;
1436;SDS011;712;51.026;13.792;2023-06-22T06:07:27;11.27;;;6.63;;
1436;SDS011;712;51.026;13.792;2023-06-22T06:12:17;7.70;;;5.63;;
1436;SDS011;712;51.026;13.792;2023-06-22T06:17:08;10.70;;;6.50;;
1436;SDS011;712;51.026;13.792;2023-06-22T06:19:33;11.50;;;6.80;;
1436;SDS011;712;51.026;13.792;2023-06-22T06:21:58;10.70;;;6.97;;
1436;SDS011;712;51.026;13.792;2023-06-22T06:26:48;12.95;;;6.80;;
1436;SDS011;712;51.026;13.792;2023-06-22T06:29:13;11.30;;;7.05;;
1436;SDS011;712;51.026;13.792;2023-06-22T06:31:41;10.32;;;7.10;;
1436;SDS011;712;51.026;13.792;2023-06-22T06:36:31;8.75;;;6.22;;
1436;SDS011;712;51.026;13.792;2023-06-22T06:41:21;9.27;;;6.73;;
1436;SDS011;712;51.026;13.792;2023-06-22T06:46:12;11.73;;;6.53;;
1436;SDS011;712;51.026;13.792;2023-06-22T06:51:02;10.52;;;6.57;;
1436;SDS011;712;51.026;13.792;2023-06-22T06:55:53;10.32;;;7.85;;
1436;SDS011;712;51.026;13.792;2023-06-22T07:00:44;9.90;;;6.32;;
1436;SDS011;712;51.026;13.792;2023-06-22T07:05:34;9.73;;;6.35;;
1436;SDS011;712;51.026;13.792;2023-06-22T07:08:00;11.48;;;6.80;;
1436;SDS011;712;51.026;13.792;2023-06-22T07:12:50;9.55;;;5.93;;
1436;SDS011;712;51.026;13.792;2023-06-22T07:15:15;11.02;;;7.30;;
1436;SDS011;712;51.026;13.792;2023-06-22T07:17:40;10.52;;;7.68;;
1436;SDS011;712;51.026;13.792;2023-06-22T07:20:06;11.50;;;7.57;;
1436;SDS011;712;51.026;13.792;2023-06-22T07:22:35;12.13;;;6.93;;
1436;SDS011;712;51.026;13.792;2023-06-22T07:27:26;9.38;;;6.90;;
1436;SDS011;712;51.026;13.792;2023-06-22T07:32:16;10.52;;;7.18;;
1436;SDS011;712;51.026;13.792;2023-06-22T07:37:06;12.35;;;7.30;;
1436;SDS011;712;51.026;13.792;2023-06-22T07:41:57;9.82;;;7.18;;
1436;SDS011;712;51.026;13.792;2023-06-22T07:46:47;11.95;;;7.30;;
1436;SDS011;712;51.026;13.792;2023-06-22T07:51:37;9.32;;;6.95;;
1436;SDS011;712;51.026;13.792;2023-06-22T07:56:27;8.82;;;6.65;;
1436;SDS011;712;51.026;13.792;2023-06-22T07:58:53;10.70;;;7.07;;
1436;SDS011;712;51.026;13.792;2023-06-22T08:01:18;10.47;;;6.80;;
1436;SDS011;712;51.026;13.792;2023-06-22T08:03:45;10.75;;;6.95;;
1436;SDS011;712;51.026;13.792;2023-06-22T08:06:11;9.53;;;6.80;;
1436;SDS011;712;51.026;13.792;2023-06-22T08:08:36;10.77;;;7.00;;
1436;SDS011;712;51.026;13.792;2023-06-22T08:11:01;10.48;;;6.82;;
1436;SDS011;712;51.026;13.792;2023-06-22T08:13:26;9.73;;;6.53;;
1436;SDS011;712;51.026;13.792;2023-06-22T08:15:52;12.88;;;7.18;;
1436;SDS011;712;51.026;13.792;2023-06-22T08:18:17;10.00;;;6.00;;
1436;SDS011;712;51.026;13.792;2023-06-22T08:20:42;9.20;;;6.90;;
1436;SDS011;712;51.026;13.792;2023-06-22T08:23:07;8.33;;;5.80;;
1436;SDS011;712;51.026;13.792;2023-06-22T08:25:33;8.40;;;6.00;;
1436;SDS011;712;51.026;13.792;2023-06-22T08:27:59;9.23;;;5.95;;
1436;SDS011;712;51.026;13.792;2023-06-22T08:32:49;7.45;;;5.38;;
1436;SDS011;712;51.026;13.792;2023-06-22T08:35:14;8.10;;;5.53;;
1436;SDS011;712;51.026;13.792;2023-06-22T08:40:05;8.97;;;5.80;;
1436;SDS011;712;51.026;13.792;2023-06-22T08:42:32;7.88;;;5.97;;
1436;SDS011;712;51.026;13.792;2023-06-22T08:44:58;9.57;;;5.50;;
1436;SDS011;712;51.026;13.792;2023-06-22T08:47:23;9.05;;;5.88;;
1436;SDS011;712;51.026;13.792;2023-06-22T08:49:49;8.33;;;5.70;;
1436;SDS011;712;51.026;13.792;2023-06-22T08:52:14;8.05;;;5.43;;
1436;SDS011;712;51.026;13.792;2023-06-22T08:54:39;7.15;;;5.38;;
1436;SDS011;712;51.026;13.792;2023-06-22T08:57:04;8.10;;;6.25;;
1436;SDS011;712;51.026;13.792;2023-06-22T08:59:30;8.43;;;6.13;;
1436;SDS011;712;51.026;13.792;2023-06-22T09:04:20;7.97;;;6.20;;
1436;SDS011;712;51.026;13.792;2023-06-22T09:06:48;8.32;;;6.00;;
1436;SDS011;712;51.026;13.792;2023-06-22T09:09:15;7.72;;;5.80;;
1436;SDS011;712;51.026;13.792;2023-06-22T09:11:40;8.95;;;5.93;;
1436;SDS011;712;51.026;13.792;2023-06-22T09:14:06;9.83;;;6.30;;
1436;SDS011;712;51.026;13.792;2023-06-22T09:16:31;8.35;;;5.90;;
1436;SDS011;712;51.026;13.792;2023-06-22T09:18:56;8.17;;;6.07;;
1436;SDS011;712;51.026;13.792;2023-06-22T09:21:21;9.27;;;5.90;;
1436;SDS011;712;51.026;13.792;2023-06-22T09:23:46;9.40;;;6.23;;
1436;SDS011;712;51.026;13.792;2023-06-22T09:26:16;8.35;;;5.70;;
1436;SDS011;712;51.026;13.792;2023-06-22T09:28:41;11.00;;;6.10;;
1436;SDS011;712;51.026;13.792;2023-06-22T09:31:06;8.85;;;6.18;;
1436;SDS011;712;51.026;13.792;2023-06-22T09:33:32;8.93;;;6.15;;
1436;SDS011;712;51.026;13.792;2023-06-22T09:35:57;8.50;;;5.65;;
1436;SDS011;712;51.026;13.792;2023-06-22T09:38:22;8.45;;;6.13;;
1436;SDS011;712;51.026;13.792;2023-06-22T09:40:47;8.30;;;5.47;;
1436;SDS011;712;51.026;13.792;2023-06-22T09:43:12;8.35;;;5.70;;
1436;SDS011;712;51.026;13.792;2023-06-22T09:45:38;7.77;;;5.30;;
1436;SDS011;712;51.026;13.792;2023-06-22T09:48:03;8.23;;;5.50;;
1436;SDS011;712;51.026;13.792;2023-06-22T09:50:28;10.50;;;6.17;;
1436;SDS011;712;51.026;13.792;2023-06-22T09:52:53;8.45;;;5.80;;
1436;SDS011;712;51.026;13.792;2023-06-22T09:55:22;8.90;;;5.85;;
1436;SDS011;712;51.026;13.792;2023-06-22T09:57:47;8.55;;;6.13;;
1436;SDS011;712;51.026;13.792;2023-06-22T10:00:13;6.85;;;5.32;;
1436;SDS011;712;51.026;13.792;2023-06-22T10:02:40;9.25;;;5.45;;
1436;SDS011;712;51.026;13.792;2023-06-22T10:05:06;7.95;;;5.55;;
1436;SDS011;712;51.026;13.792;2023-06-22T10:07:32;8.73;;;5.60;;
1436;SDS011;712;51.026;13.792;2023-06-22T10:09:57;7.00;;;5.28;;
1436;SDS011;712;51.026;13.792;2023-06-22T10:12:22;7.55;;;5.45;;
1436;SDS011;712;51.026;13.792;2023-06-22T10:14:47;7.87;;;6.23;;
1436;SDS011;712;51.026;13.792;2023-06-22T10:17:13;8.02;;;6.25;;
1436;SDS011;712;51.026;13.792;2023-06-22T10:19:38;9.30;;;6.28;;
1436;SDS011;712;51.026;13.792;2023-06-22T10:22:04;9.00;;;6.03;;
1436;SDS011;712;51.026;13.792;2023-06-22T10:24:29;9.77;;;6.22;;
1436;SDS011;712;51.026;13.792;2023-06-22T10:26:54;8.27;;;5.88;;
1436;SDS011;712;51.026;13.792;2023-06-22T10:29:20;8.82;;;5.97;;
1436;SDS011;712;51.026;13.792;2023-06-22T10:31:45;7.88;;;5.88;;
1436;SDS011;712;51.026;13.792;2023-06-22T10:34:10;9.32;;;6.32;;
1436;SDS011;712;51.026;13.792;2023-06-22T10:36:35;9.20;;;6.03;;
1436;SDS011;712;51.026;13.792;2023-06-22T10:39:00;8.90;;;5.93;;
1436;SDS011;712;51.026;13.792;2023-06-22T10:41:26;8.30;;;5.85;;
1436;SDS011;712;51.026;13.792;2023-06-22T10:43:54;8.48;;;6.30;;
1436;SDS011;712;51.026;13.792;2023-06-22T10:46:20;8.40;;;6.22;;
1436;SDS011;712;51.026;13.792;2023-06-22T10:48:45;11.02;;;5.93;;
1436;SDS011;712;51.026;13.792;2023-06-22T10:51:10;9.45;;;6.15;;
1436;SDS011;712;51.026;13.792;2023-06-22T10:53:35;8.70;;;5.88;;
1436;SDS011;712;51.026;13.792;2023-06-22T10:56:00;9.95;;;6.13;;
1436;SDS011;712;51.026;13.792;2023-06-22T10:58:25;9.85;;;6.18;;
1436;SDS011;712;51.026;13.792;2023-06-22T11:00:51;10.63;;;6.38;;
1436;SDS011;712;51.026;13.792;2023-06-22T11:03:16;8.38;;;5.93;;
1436;SDS011;712;51.026;13.792;2023-06-22T11:05:41;7.88;;;5.97;;
1436;SDS011;712;51.026;13.792;2023-06-22T11:08:07;10.00;;;6.33;;
1436;SDS011;712;51.026;13.792;2023-06-22T11:10:32;9.23;;;5.80;;
1436;SDS011;712;51.026;13.792;2023-06-22T11:12:57;8.45;;;6.28;;
1436;SDS011;712;51.026;13.792;2023-06-22T11:15:22;8.25;;;6.03;;
1436;SDS011;712;51.026;13.792;2023-06-22T11:17:48;8.83;;;6.47;;
1436;SDS011;712;51.026;13.792;2023-06-22T11:20:13;8.18;;;6.20;;
1436;SDS011;712;51.026;13.792;2023-06-22T11:22:38;8.67;;;5.90;;
1436;SDS011;712;51.026;13.792;2023-06-22T11:25:04;7.68;;;5.80;;
1436;SDS011;712;51.026;13.792;2023-06-22T11:27:29;8.35;;;5.93;;
1436;SDS011;712;51.026;13.792;2023-06-22T11:29:55;7.93;;;5.77;;
1436;SDS011;712;51.026;13.792;2023-06-22T11:32:20;8.88;;;5.60;;
1436;SDS011;712;51.026;13.792;2023-06-22T11:34:45;8.63;;;6.33;;
1436;SDS011;712;51.026;13.792;2023-06-22T11:37:10;9.45;;;5.57;;
1436;SDS011;712;51.026;13.792;2023-06-22T11:39:35;7.68;;;5.68;;
1436;SDS011;712;51.026;13.792;2023-06-22T11:42:00;8.68;;;6.20;;
1436;SDS011;712;51.026;13.792;2023-06-22T11:44:26;8.50;;;6.22;;
1436;SDS011;712;51.026;13.792;2023-06-22T11:46:51;7.97;;;5.80;;
1436;SDS011;712;51.026;13.792;2023-06-22T11:49:16;8.13;;;6.33;;
1436;SDS011;712;51.026;13.792;2023-06-22T11:51:41;10.40;;;6.32;;
1436;SDS011;712;51.026;13.792;2023-06-22T11:54:06;8.43;;;6.03;;
1436;SDS011;712;51.026;13.792;2023-06-22T11:56:32;7.78;;;5.63;;
1436;SDS011;712;51.026;13.792;2023-06-22T11:58:57;9.60;;;6.03;;
1436;SDS011;712;51.026;13.792;2023-06-22T12:01:23;8.15;;;6.35;;
1436;SDS011;712;51.026;13.792;2023-06-22T12:03:48;8.40;;;5.75;;
1436;SDS011;712;51.026;13.792;2023-06-22T12:06:13;8.63;;;5.93;;
1436;SDS011;712;51.026;13.792;2023-06-22T12:08:38;9.55;;;7.05;;
1436;SDS011;712;51.026;13.792;2023-06-22T12:11:03;8.90;;;6.40;;
1436;SDS011;712;51.026;13.792;2023-06-22T12:13:29;10.90;;;7.07;;
1436;SDS011;712;51.026;13.792;2023-06-22T12:15:54;8.93;;;5.85;;
1436;SDS011;712;51.026;13.792;2023-06-22T12:18:19;9.40;;;6.00;;
1436;SDS011;712;51.026;13.792;2023-06-22T12:20:46;8.20;;;5.72;;
1436;SDS011;712;51.026;13.792;2023-06-22T12:23:11;11.45;;;6.38;;
1436;SDS011;712;51.026;13.792;2023-06-22T12:25:36;8.80;;;6.13;;
1436;SDS011;712;51.026;13.792;2023-06-22T12:28:01;10.27;;;6.43;;
1436;SDS011;712;51.026;13.792;2023-06-22T12:30:27;7.95;;;6.50;;
1436;SDS011;712;51.026;13.792;2023-06-22T12:32:52;7.60;;;6.10;;
1436;SDS011;712;51.026;13.792;2023-06-22T12:35:17;9.13;;;6.85;;
1436;SDS011;712;51.026;13.792;2023-06-22T12:37:43;8.60;;;6.40;;
1436;SDS011;712;51.026;13.792;2023-06-22T12:40:08;8.63;;;6.00;;
1436;SDS011;712;51.026;13.792;2023-06-22T12:42:34;8.02;;;5.85;;
1436;SDS011;712;51.026;13.792;2023-06-22T12:44:59;8.30;;;6.03;;
1436;SDS011;712;51.026;13.792;2023-06-22T12:47:24;9.00;;;5.57;;
1436;SDS011;712;51.026;13.792;2023-06-22T12:49:49;8.57;;;5.83;;
1436;SDS011;712;51.026;13.792;2023-06-22T12:52:14;8.77;;;6.07;;
1436;SDS011;712;51.026;13.792;2023-06-22T12:54:39;7.37;;;5.30;;
1436;SDS011;712;51.026;13.792;2023-06-22T12:57:05;8.52;;;6.22;;
1436;SDS011;712;51.026;13.792;2023-06-22T12:59:30;9.47;;;5.90;;
1436;SDS011;712;51.026;13.792;2023-06-22T13:01:55;8.32;;;5.63;;
1436;SDS011;712;51.026;13.792;2023-06-22T13:04:20;8.75;;;5.93;;
1436;SDS011;712;51.026;13.792;2023-06-22T13:06:46;7.88;;;6.03;;
1436;SDS011;712;51.026;13.792;2023-06-22T13:09:12;8.32;;;5.78;;
1436;SDS011;712;51.026;13.792;2023-06-22T13:11:38;8.10;;;5.75;;
1436;SDS011;712;51.026;13.792;2023-06-22T13:14:03;7.32;;;5.70;;
1436;SDS011;712;51.026;13.792;2023-06-22T13:16:28;8.68;;;5.68;;
1436;SDS011;712;51.026;13.792;2023-06-22T13:18:53;9.20;;;6.10;;
1436;SDS011;712;51.026;13.792;2023-06-22T13:21:18;8.80;;;6.30;;
1436;SDS011;712;51.026;13.792;2023-06-22T13:23:43;8.95;;;5.55;;
1436;SDS011;712;51.026;13.792;2023-06-22T13:26:09;9.10;;;6.28;;
1436;SDS011;712;51.026;13.792;2023-06-22T13:28:34;8.52;;;5.93;;
1436;SDS011;712;51.026;13.792;2023-06-22T13:30:59;7.80;;;5.55;;
1436;SDS011;712;51.026;13.792;2023-06-22T13:33:24;8.60;;;6.18;;
1436;SDS011;712;51.026;13.792;2023-06-22T13:35:49;8.53;;;5.77;;
1436;SDS011;712;51.026;13.792;2023-06-22T13:38:15;8.63;;;5.93;;
1436;SDS011;712;51.026;13.792;2023-06-22T13:40:40;8.77;;;6.90;;
1436;SDS011;712;51.026;13.792;2023-06-22T13:43:05;8.52;;;5.85;;
1436;SDS011;712;51.026;13.792;2023-06-22T13:45:30;9.10;;;5.73;;
1436;SDS011;712;51.026;13.792;2023-06-22T13:47:55;8.17;;;5.57;;
1436;SDS011;712;51.026;13.792;2023-06-22T13:50:20;8.25;;;5.82;;
1436;SDS011;712;51.026;13.792;2023-06-22T13:52:46;7.95;;;5.60;;
1436;SDS011;712;51.026;13.792;2023-06-22T13:55:11;8.18;;;5.45;;
1436;SDS011;712;51.026;13.792;2023-06-22T13:57:36;7.17;;;5.13;;
1436;SDS011;712;51.026;13.792;2023-06-22T14:00:02;8.95;;;5.88;;
1436;SDS011;712;51.026;13.792;2023-06-22T14:02:30;9.30;;;6.13;;
1436;SDS011;712;51.026;13.792;2023-06-22T14:04:55;7.88;;;6.03;;
1436;SDS011;712;51.026;13.792;2023-06-22T14:07:20;8.55;;;5.68;;
1436;SDS011;712;51.026;13.792;2023-06-22T14:09:45;9.98;;;6.25;;
1436;SDS011;712;51.026;13.792;2023-06-22T14:12:11;8.33;;;6.13;;
1436;SDS011;712;51.026;13.792;2023-06-22T14:14:36;10.67;;;6.27;;
1436;SDS011;712;51.026;13.792;2023-06-22T14:17:01;10.27;;;6.50;;
1436;SDS011;712;51.026;13.792;2023-06-22T14:19:27;8.57;;;6.03;;
1436;SDS011;712;51.026;13.792;2023-06-22T14:21:52;9.20;;;6.40;;
1436;SDS011;712;51.026;13.792;2023-06-22T14:24:17;8.85;;;6.07;;
1436;SDS011;712;51.026;13.792;2023-06-22T14:26:42;10.68;;;5.95;;
1436;SDS011;712;51.026;13.792;2023-06-22T14:29:07;9.18;;;6.22;;
1436;SDS011;712;51.026;13.792;2023-06-22T14:31:32;8.87;;;6.13;;
1436;SDS011;712;51.026;13.792;2023-06-22T14:33:58;7.03;;;5.40;;
1436;SDS011;712;51.026;13.792;2023-06-22T14:36:23;8.05;;;6.43;;
1436;SDS011;712;51.026;13.792;2023-06-22T14:38:48;8.27;;;5.70;;
1436;SDS011;712;51.026;13.792;2023-06-22T14:41:13;9.65;;;5.85;;
1436;SDS011;712;51.026;13.792;2023-06-22T14:43:43;7.68;;;5.82;;
1436;SDS011;712;51.026;13.792;2023-06-22T14:46:08;9.73;;;5.50;;
1436;SDS011;712;51.026;13.792;2023-06-22T14:48:33;7.95;;;5.18;;
1436;SDS011;712;51.026;13.792;2023-06-22T14:50:58;10.57;;;6.65;;
1436;SDS011;712;51.026;13.792;2023-06-22T14:53:25;9.43;;;6.47;;
1436;SDS011;712;51.026;13.792;2023-06-22T14:55:51;9.35;;;6.35;;
1436;SDS011;712;51.026;13.792;2023-06-22T14:58:16;8.60;;;5.90;;
1436;SDS011;712;51.026;13.792;2023-06-22T15:00:41;11.07;;;6.82;;
1436;SDS011;712;51.026;13.792;2023-06-22T15:03:06;9.67;;;6.83;;
1436;SDS011;712;51.026;13.792;2023-06-22T15:05:32;9.20;;;6.72;;
1436;SDS011;712;51.026;13.792;2023-06-22T15:07:57;11.13;;;6.43;;
1436;SDS011;712;51.026;13.792;2023-06-22T15:10:23;10.82;;;6.63;;
1436;SDS011;712;51.026;13.792;2023-06-22T15:12:48;10.93;;;6.85;;
1436;SDS011;712;51.026;13.792;2023-06-22T15:15:14;7.67;;;6.03;;
1436;SDS011;712;51.026;13.792;2023-06-22T15:17:39;11.33;;;6.83;;
1436;SDS011;712;51.026;13.792;2023-06-22T15:20:04;8.40;;;6.47;;
1436;SDS011;712;51.026;13.792;2023-06-22T15:22:30;8.82;;;6.28;;
1436;SDS011;712;51.026;13.792;2023-06-22T15:24:56;12.10;;;6.70;;
1436;SDS011;712;51.026;13.792;2023-06-22T15:27:23;9.27;;;6.50;;
1436;SDS011;712;51.026;13.792;2023-06-22T15:29:48;9.70;;;5.47;;
1436;SDS011;712;51.026;13.792;2023-06-22T15:32:13;7.88;;;5.93;;
1436;SDS011;712;51.026;13.792;2023-06-22T15:34:38;9.40;;;6.53;;
1436;SDS011;712;51.026;13.792;2023-06-22T15:37:03;9.43;;;6.70;;
1436;SDS011;712;51.026;13.792;2023-06-22T15:39:28;8.00;;;6.07;;
1436;SDS011;712;51.026;13.792;2023-06-22T15:41:54;8.37;;;6.10;;
1436;SDS011;712;51.026;13.792;2023-06-22T15:44:19;10.40;;;6.90;;
1436;SDS011;712;51.026;13.792;2023-06-22T15:46:44;10.02;;;7.22;;
1436;SDS011;712;51.026;13.792;2023-06-22T15:49:09;9.63;;;6.43;;
1436;SDS011;712;51.026;13.792;2023-06-22T15:51:35;8.60;;;6.60;;
1436;SDS011;712;51.026;13.792;2023-06-22T15:54:00;8.85;;;6.57;;
1436;SDS011;712;51.026;13.792;2023-06-22T15:56:25;8.70;;;6.47;;
1436;SDS011;712;51.026;13.792;2023-06-22T15:58:50;10.47;;;6.83;;
1436;SDS011;712;51.026;13.792;2023-06-22T16:01:15;10.55;;;7.30;;
1436;SDS011;712;51.026;13.792;2023-06-22T16:03:40;9.20;;;7.00;;
1436;SDS011;712;51.026;13.792;2023-06-22T16:06:06;9.90;;;6.80;;
1436;SDS011;712;51.026;13.792;2023-06-22T16:08:31;9.33;;;6.77;;
1436;SDS011;712;51.026;13.792;2023-06-22T16:10:58;9.82;;;7.10;;
1436;SDS011;712;51.026;13.792;2023-06-22T16:13:23;10.18;;;7.20;;
1436;SDS011;712;51.026;13.792;2023-06-22T16:15:48;12.43;;;7.23;;
1436;SDS011;712;51.026;13.792;2023-06-22T16:18:14;8.98;;;7.05;;
1436;SDS011;712;51.026;13.792;2023-06-22T16:20:40;10.02;;;7.03;;
1436;SDS011;712;51.026;13.792;2023-06-22T16:23:05;8.87;;;7.60;;